KLNR

Tri-County Regional Airport

Lone Rock, Wisconsin, USA
METAR KLNR 260256Z AUTO 26004KT 10SM CLR M01/M04 A3004 RMK AO2 SLP179 T10111039 51020
Observed Flight Rules
Feb-26 @ 02:56 UTC (37 minutes ago) Visual Flight Rules
Wind Visibility Clouds
260° at 4 knots 10 miles
  • Clear skies
Temperatures Readings
Current -1°C / 30°F
Dewpoint -4°C / 25°F
Humidity 80%
Altimeter 30.04" Hg
Pressure 1017.9 hPa
Elevation 217
METAR KLNR 260256Z AUTO 26004KT 10SM CLR M01/M04 A3004 RMK AO2 SLP179 T10111039 51020
Observed Flight Rules
Feb-26 @ 02:56 UTC
(37 minutes ago)
VFR
Wind Visibility
260° at 4 knots 10 miles
Clouds
  • Clear skies
Temperature Dewpoint
-1°C / 30°F -4°C / 25°F
Humidity Altimeter Pressure
80% 30.04" Hg 1017.9 hPa